sensor_id;sensor_type;location;lat;lon;timestamp;pressure;altitude;pressure_sealevel;temperature;humidity
59608;BME280;45426;44.726;10.390;2022-12-05T00:00:28;100766.69;;;8.91;100.00
59608;BME280;45426;44.726;10.390;2022-12-05T00:02:53;100766.78;;;9.17;100.00
59608;BME280;45426;44.726;10.390;2022-12-05T00:05:18;100772.69;;;9.19;100.00
59608;BME280;45426;44.726;10.390;2022-12-05T00:07:44;100770.63;;;9.25;100.00
59608;BME280;45426;44.726;10.390;2022-12-05T00:10:10;100775.94;;;9.30;100.00
59608;BME280;45426;44.726;10.390;2022-12-05T00:12:36;100783.16;;;9.03;100.00
59608;BME280;45426;44.726;10.390;2022-12-05T00:15:02;100785.38;;;9.41;100.00
59608;BME280;45426;44.726;10.390;2022-12-05T00:17:27;100792.47;;;9.20;100.00
59608;BME280;45426;44.726;10.390;2022-12-05T00:19:53;100788.16;;;9.19;100.00
59608;BME280;45426;44.726;10.390;2022-12-05T00:22:18;100794.88;;;9.21;100.00
59608;BME280;45426;44.726;10.390;2022-12-05T00:24:43;100801.25;;;9.25;100.00
59608;BME280;45426;44.726;10.390;2022-12-05T00:27:09;100803.25;;;9.02;100.00
59608;BME280;45426;44.726;10.390;2022-12-05T00:29:35;100809.44;;;8.94;100.00
59608;BME280;45426;44.726;10.390;2022-12-05T00:32:00;100812.56;;;9.19;100.00
59608;BME280;45426;44.726;10.390;2022-12-05T00:34:26;100810.88;;;9.00;100.00
59608;BME280;45426;44.726;10.390;2022-12-05T00:36:51;100795.25;;;9.37;100.00
59608;BME280;45426;44.726;10.390;2022-12-05T00:39:17;100776.91;;;9.51;100.00
59608;BME280;45426;44.726;10.390;2022-12-05T00:41:42;100780.06;;;9.36;100.00
59608;BME280;45426;44.726;10.390;2022-12-05T00:44:10;100763.84;;;9.53;100.00
59608;BME280;45426;44.726;10.390;2022-12-05T00:46:36;100752.44;;;9.25;100.00
59608;BME280;45426;44.726;10.390;2022-12-05T00:49:03;100756.56;;;9.05;100.00
59608;BME280;45426;44.726;10.390;2022-12-05T00:51:37;100773.31;;;9.07;100.00
59608;BME280;45426;44.726;10.390;2022-12-05T00:54:09;100782.34;;;9.03;100.00
59608;BME280;45426;44.726;10.390;2022-12-05T00:56:35;100788.59;;;9.12;100.00
59608;BME280;45426;44.726;10.390;2022-12-05T00:59:02;100797.88;;;8.80;100.00
59608;BME280;45426;44.726;10.390;2022-12-05T01:01:34;100790.19;;;9.04;100.00
59608;BME280;45426;44.726;10.390;2022-12-05T01:04:02;100778.47;;;9.35;100.00
59608;BME280;45426;44.726;10.390;2022-12-05T01:06:28;100779.47;;;9.39;100.00
59608;BME280;45426;44.726;10.390;2022-12-05T01:08:55;100783.91;;;8.95;100.00
59608;BME280;45426;44.726;10.390;2022-12-05T01:11:21;100775.88;;;9.21;100.00
59608;BME280;45426;44.726;10.390;2022-12-05T01:13:47;100783.06;;;9.17;100.00
59608;BME280;45426;44.726;10.390;2022-12-05T01:16:20;100797.28;;;8.91;100.00
59608;BME280;45426;44.726;10.390;2022-12-05T01:18:47;100793.28;;;9.20;100.00
59608;BME280;45426;44.726;10.390;2022-12-05T01:21:12;100805.09;;;8.93;100.00
59608;BME280;45426;44.726;10.390;2022-12-05T01:23:38;100808.34;;;9.04;100.00
59608;BME280;45426;44.726;10.390;2022-12-05T01:26:05;100794.88;;;9.21;100.00
59608;BME280;45426;44.726;10.390;2022-12-05T01:28:31;100782.72;;;9.10;100.00
59608;BME280;45426;44.726;10.390;2022-12-05T01:30:57;100790.41;;;9.17;100.00
59608;BME280;45426;44.726;10.390;2022-12-05T01:33:22;100777.22;;;8.92;100.00
59608;BME280;45426;44.726;10.390;2022-12-05T01:35:48;100777.09;;;9.06;100.00
59608;BME280;45426;44.726;10.390;2022-12-05T01:38:13;100779.38;;;9.13;100.00
59608;BME280;45426;44.726;10.390;2022-12-05T01:40:39;100790.97;;;9.05;100.00
59608;BME280;45426;44.726;10.390;2022-12-05T01:43:23;100783.31;;;8.98;100.00
59608;BME280;45426;44.726;10.390;2022-12-05T01:45:48;100786.38;;;9.05;100.00
59608;BME280;45426;44.726;10.390;2022-12-05T01:48:22;100773.47;;;9.11;100.00
59608;BME280;45426;44.726;10.390;2022-12-05T01:50:49;100771.41;;;9.17;100.00
59608;BME280;45426;44.726;10.390;2022-12-05T01:53:16;100768.41;;;9.27;100.00
59608;BME280;45426;44.726;10.390;2022-12-05T01:55:43;100774.78;;;9.22;100.00
59608;BME280;45426;44.726;10.390;2022-12-05T01:58:09;100783.56;;;8.88;100.00
59608;BME280;45426;44.726;10.390;2022-12-05T02:00:34;100773.44;;;9.02;100.00
59608;BME280;45426;44.726;10.390;2022-12-05T02:03:05;100772.97;;;9.09;100.00
59608;BME280;45426;44.726;10.390;2022-12-05T02:05:32;100764.50;;;9.02;100.00
59608;BME280;45426;44.726;10.390;2022-12-05T02:08:01;100759.44;;;9.18;100.00
59608;BME280;45426;44.726;10.390;2022-12-05T02:10:35;100744.94;;;9.13;100.00
59608;BME280;45426;44.726;10.390;2022-12-05T02:16:07;100739.38;;;9.19;100.00
59608;BME280;45426;44.726;10.390;2022-12-05T02:32:37;100739.13;;;9.46;100.00
59608;BME280;45426;44.726;10.390;2022-12-05T02:37:56;100716.53;;;9.02;100.00
59608;BME280;45426;44.726;10.390;2022-12-05T02:40:49;100726.00;;;8.82;100.00
59608;BME280;45426;44.726;10.390;2022-12-05T02:43:23;100744.72;;;8.92;100.00
59608;BME280;45426;44.726;10.390;2022-12-05T02:45:53;100750.56;;;8.86;100.00
59608;BME280;45426;44.726;10.390;2022-12-05T02:48:22;100730.06;;;9.02;100.00
59608;BME280;45426;44.726;10.390;2022-12-05T02:50:52;100727.53;;;9.06;100.00
59608;BME280;45426;44.726;10.390;2022-12-05T02:53:19;100720.38;;;9.10;100.00
59608;BME280;45426;44.726;10.390;2022-12-05T02:55:46;100723.94;;;8.88;100.00
59608;BME280;45426;44.726;10.390;2022-12-05T02:58:19;100722.28;;;9.09;100.00
59608;BME280;45426;44.726;10.390;2022-12-05T03:00:48;100704.47;;;9.26;100.00
59608;BME280;45426;44.726;10.390;2022-12-05T03:03:17;100706.81;;;9.10;100.00
59608;BME280;45426;44.726;10.390;2022-12-05T03:08:28;100720.63;;;8.91;100.00
59608;BME280;45426;44.726;10.390;2022-12-05T03:10:55;100731.34;;;8.96;100.00
59608;BME280;45426;44.726;10.390;2022-12-05T03:13:50;100726.56;;;9.10;100.00
59608;BME280;45426;44.726;10.390;2022-12-05T03:16:23;100711.78;;;9.25;100.00
59608;BME280;45426;44.726;10.390;2022-12-05T03:18:55;100726.19;;;9.43;100.00
59608;BME280;45426;44.726;10.390;2022-12-05T03:24:02;100707.19;;;9.26;100.00
59608;BME280;45426;44.726;10.390;2022-12-05T03:27:05;100712.91;;;9.33;100.00
59608;BME280;45426;44.726;10.390;2022-12-05T03:29:50;100707.44;;;8.98;100.00
59608;BME280;45426;44.726;10.390;2022-12-05T03:40:47;100725.47;;;9.11;100.00
59608;BME280;45426;44.726;10.390;2022-12-05T03:46:17;100735.59;;;9.37;100.00
59608;BME280;45426;44.726;10.390;2022-12-05T03:51:15;100738.97;;;8.94;100.00
59608;BME280;45426;44.726;10.390;2022-12-05T03:53:48;100729.66;;;9.26;100.00
59608;BME280;45426;44.726;10.390;2022-12-05T03:56:39;100729.25;;;8.93;100.00
59608;BME280;45426;44.726;10.390;2022-12-05T03:59:18;100743.75;;;8.88;100.00
59608;BME280;45426;44.726;10.390;2022-12-05T04:01:47;100750.50;;;9.08;100.00
59608;BME280;45426;44.726;10.390;2022-12-05T04:04:17;100744.63;;;9.15;100.00
59608;BME280;45426;44.726;10.390;2022-12-05T04:06:48;100760.56;;;8.77;100.00
59608;BME280;45426;44.726;10.390;2022-12-05T04:09:18;100765.97;;;9.08;100.00
59608;BME280;45426;44.726;10.390;2022-12-05T04:11:50;100757.78;;;8.99;100.00
59608;BME280;45426;44.726;10.390;2022-12-05T04:14:25;100750.38;;;8.73;100.00
59608;BME280;45426;44.726;10.390;2022-12-05T04:22:33;100735.75;;;8.92;100.00
59608;BME280;45426;44.726;10.390;2022-12-05T04:25:02;100743.69;;;8.80;100.00
59608;BME280;45426;44.726;10.390;2022-12-05T04:30:33;100750.00;;;9.06;100.00
59608;BME280;45426;44.726;10.390;2022-12-05T04:33:26;100750.56;;;9.35;100.00
59608;BME280;45426;44.726;10.390;2022-12-05T04:38:33;100758.53;;;9.22;100.00
59608;BME280;45426;44.726;10.390;2022-12-05T04:41:05;100749.81;;;8.94;100.00
59608;BME280;45426;44.726;10.390;2022-12-05T04:43:36;100747.66;;;9.13;100.00
59608;BME280;45426;44.726;10.390;2022-12-05T04:46:06;100758.81;;;8.81;100.00
59608;BME280;45426;44.726;10.390;2022-12-05T04:48:34;100748.47;;;9.23;100.00
59608;BME280;45426;44.726;10.390;2022-12-05T04:51:03;100758.00;;;9.11;100.00
59608;BME280;45426;44.726;10.390;2022-12-05T04:53:32;100760.22;;;9.09;100.00
59608;BME280;45426;44.726;10.390;2022-12-05T04:55:59;100754.16;;;9.04;100.00
59608;BME280;45426;44.726;10.390;2022-12-05T04:58:27;100747.84;;;8.86;100.00
59608;BME280;45426;44.726;10.390;2022-12-05T05:01:10;100743.28;;;8.64;100.00
59608;BME280;45426;44.726;10.390;2022-12-05T05:03:51;100740.78;;;9.16;100.00
59608;BME280;45426;44.726;10.390;2022-12-05T05:06:18;100742.44;;;9.35;100.00
59608;BME280;45426;44.726;10.390;2022-12-05T05:08:50;100742.28;;;9.40;100.00
59608;BME280;45426;44.726;10.390;2022-12-05T05:11:25;100751.41;;;8.95;100.00
59608;BME280;45426;44.726;10.390;2022-12-05T05:13:51;100742.09;;;9.19;100.00
59608;BME280;45426;44.726;10.390;2022-12-05T05:16:18;100737.31;;;9.33;100.00
59608;BME280;45426;44.726;10.390;2022-12-05T05:18:48;100717.81;;;9.13;100.00
59608;BME280;45426;44.726;10.390;2022-12-05T05:23:52;100731.63;;;9.52;100.00
59608;BME280;45426;44.726;10.390;2022-12-05T05:26:17;100732.28;;;9.58;100.00
59608;BME280;45426;44.726;10.390;2022-12-05T05:28:44;100731.81;;;9.73;100.00
59608;BME280;45426;44.726;10.390;2022-12-05T05:31:09;100733.06;;;9.41;100.00
59608;BME280;45426;44.726;10.390;2022-12-05T05:33:35;100732.75;;;9.68;100.00
59608;BME280;45426;44.726;10.390;2022-12-05T05:36:06;100719.19;;;9.68;100.00
59608;BME280;45426;44.726;10.390;2022-12-05T05:38:36;100721.41;;;9.58;100.00
59608;BME280;45426;44.726;10.390;2022-12-05T05:41:02;100736.63;;;9.10;100.00
59608;BME280;45426;44.726;10.390;2022-12-05T05:43:27;100745.63;;;9.28;100.00
59608;BME280;45426;44.726;10.390;2022-12-05T05:45:53;100745.84;;;9.00;100.00
59608;BME280;45426;44.726;10.390;2022-12-05T05:48:18;100739.38;;;9.19;100.00
59608;BME280;45426;44.726;10.390;2022-12-05T05:50:44;100730.16;;;9.28;100.00
59608;BME280;45426;44.726;10.390;2022-12-05T05:53:09;100721.91;;;8.93;100.00
59608;BME280;45426;44.726;10.390;2022-12-05T05:55:38;100725.91;;;9.05;100.00
59608;BME280;45426;44.726;10.390;2022-12-05T05:58:03;100743.31;;;9.12;100.00
59608;BME280;45426;44.726;10.390;2022-12-05T06:00:29;100766.06;;;8.94;100.00
59608;BME280;45426;44.726;10.390;2022-12-05T06:02:54;100758.38;;;8.87;100.00
59608;BME280;45426;44.726;10.390;2022-12-05T06:05:20;100761.03;;;9.10;100.00
59608;BME280;45426;44.726;10.390;2022-12-05T06:07:45;100761.25;;;9.31;100.00
59608;BME280;45426;44.726;10.390;2022-12-05T06:10:10;100755.66;;;9.27;100.00
59608;BME280;45426;44.726;10.390;2022-12-05T06:12:36;100767.75;;;9.21;100.00
59608;BME280;45426;44.726;10.390;2022-12-05T06:15:01;100772.50;;;9.73;100.00
59608;BME280;45426;44.726;10.390;2022-12-05T06:17:26;100774.88;;;9.83;100.00
59608;BME280;45426;44.726;10.390;2022-12-05T06:19:52;100767.69;;;9.87;100.00
59608;BME280;45426;44.726;10.390;2022-12-05T06:22:17;100766.75;;;9.66;100.00
59608;BME280;45426;44.726;10.390;2022-12-05T06:24:43;100775.03;;;9.61;100.00
59608;BME280;45426;44.726;10.390;2022-12-05T06:27:08;100779.16;;;9.49;100.00
59608;BME280;45426;44.726;10.390;2022-12-05T06:29:34;100780.94;;;9.54;100.00
59608;BME280;45426;44.726;10.390;2022-12-05T06:32:00;100782.00;;;9.44;100.00
59608;BME280;45426;44.726;10.390;2022-12-05T06:34:25;100781.19;;;9.35;100.00
59608;BME280;45426;44.726;10.390;2022-12-05T06:36:51;100780.06;;;9.36;100.00
59608;BME280;45426;44.726;10.390;2022-12-05T06:39:16;100786.25;;;9.19;100.00
59608;BME280;45426;44.726;10.390;2022-12-05T06:41:42;100794.63;;;9.00;100.00
59608;BME280;45426;44.726;10.390;2022-12-05T06:44:08;100776.19;;;9.11;100.00
59608;BME280;45426;44.726;10.390;2022-12-05T06:46:34;100779.16;;;9.49;100.00
59608;BME280;45426;44.726;10.390;2022-12-05T06:49:00;100777.34;;;9.27;100.00
59608;BME280;45426;44.726;10.390;2022-12-05T06:51:25;100783.50;;;9.10;100.00
59608;BME280;45426;44.726;10.390;2022-12-05T06:53:51;100773.22;;;9.30;100.00
59608;BME280;45426;44.726;10.390;2022-12-05T06:56:18;100769.97;;;9.19;100.00
59608;BME280;45426;44.726;10.390;2022-12-05T06:58:48;100776.53;;;9.27;100.00
59608;BME280;45426;44.726;10.390;2022-12-05T07:01:19;100778.59;;;9.21;100.00
59608;BME280;45426;44.726;10.390;2022-12-05T07:06:34;100788.09;;;9.59;100.00
59608;BME280;45426;44.726;10.390;2022-12-05T07:09:00;100787.00;;;9.60;100.00
59608;BME280;45426;44.726;10.390;2022-12-05T07:11:25;100797.88;;;9.20;100.00
59608;BME280;45426;44.726;10.390;2022-12-05T07:13:51;100795.06;;;9.42;100.00
59608;BME280;45426;44.726;10.390;2022-12-05T07:16:16;100805.22;;;9.19;100.00
59608;BME280;45426;44.726;10.390;2022-12-05T07:18:42;100792.81;;;9.27;100.00
59608;BME280;45426;44.726;10.390;2022-12-05T07:21:11;100790.78;;;9.50;100.00
59608;BME280;45426;44.726;10.390;2022-12-05T07:23:36;100802.47;;;9.50;100.00
59608;BME280;45426;44.726;10.390;2022-12-05T07:26:11;100811.00;;;9.35;100.00
59608;BME280;45426;44.726;10.390;2022-12-05T07:28:37;100801.50;;;9.55;100.00
59608;BME280;45426;44.726;10.390;2022-12-05T07:31:05;100796.66;;;9.26;100.00
59608;BME280;45426;44.726;10.390;2022-12-05T07:33:31;100804.13;;;9.29;100.00
59608;BME280;45426;44.726;10.390;2022-12-05T07:36:09;100801.63;;;9.50;100.00
59608;BME280;45426;44.726;10.390;2022-12-05T07:38:35;100805.78;;;9.47;100.00
59608;BME280;45426;44.726;10.390;2022-12-05T07:41:05;100808.25;;;9.93;100.00
59608;BME280;45426;44.726;10.390;2022-12-05T07:43:31;100802.03;;;9.75;100.00
59608;BME280;45426;44.726;10.390;2022-12-05T07:46:01;100807.97;;;9.37;100.00
59608;BME280;45426;44.726;10.390;2022-12-05T07:48:26;100824.06;;;8.93;100.00
59608;BME280;45426;44.726;10.390;2022-12-05T07:50:52;100827.56;;;9.25;100.00
59608;BME280;45426;44.726;10.390;2022-12-05T07:53:18;100827.75;;;8.97;100.00
59608;BME280;45426;44.726;10.390;2022-12-05T07:55:43;100838.47;;;9.02;100.00
59608;BME280;45426;44.726;10.390;2022-12-05T07:58:08;100837.50;;;9.38;100.00
59608;BME280;45426;44.726;10.390;2022-12-05T08:00:34;100838.84;;;9.18;100.00
59608;BME280;45426;44.726;10.390;2022-12-05T08:03:01;100836.66;;;9.78;100.00
59608;BME280;45426;44.726;10.390;2022-12-05T08:05:27;100823.22;;;9.64;100.00
59608;BME280;45426;44.726;10.390;2022-12-05T08:07:52;100827.25;;;9.26;100.00
59608;BME280;45426;44.726;10.390;2022-12-05T08:10:18;100826.97;;;9.28;100.00
59608;BME280;45426;44.726;10.390;2022-12-05T08:12:43;100824.56;;;8.95;100.00
59608;BME280;45426;44.726;10.390;2022-12-05T08:15:09;100828.47;;;9.11;100.00
59608;BME280;45426;44.726;10.390;2022-12-05T08:17:34;100817.88;;;8.92;100.00
59608;BME280;45426;44.726;10.390;2022-12-05T08:19:59;100819.88;;;9.09;100.00
59608;BME280;45426;44.726;10.390;2022-12-05T08:22:26;100815.50;;;8.68;100.00
59608;BME280;45426;44.726;10.390;2022-12-05T08:24:51;100812.88;;;8.86;100.00
59608;BME280;45426;44.726;10.390;2022-12-05T08:27:17;100817.50;;;8.85;100.00
59608;BME280;45426;44.726;10.390;2022-12-05T08:29:42;100811.09;;;9.12;100.00
59608;BME280;45426;44.726;10.390;2022-12-05T08:32:08;100805.50;;;9.66;100.00
59608;BME280;45426;44.726;10.390;2022-12-05T08:34:34;100802.97;;;9.87;100.00
59608;BME280;45426;44.726;10.390;2022-12-05T08:36:59;100814.44;;;9.09;100.00
59608;BME280;45426;44.726;10.390;2022-12-05T08:39:25;100812.38;;;9.64;100.00
59608;BME280;45426;44.726;10.390;2022-12-05T08:41:51;100827.69;;;9.20;100.00
59608;BME280;45426;44.726;10.390;2022-12-05T08:44:17;100823.75;;;9.26;100.00
59608;BME280;45426;44.726;10.390;2022-12-05T08:46:44;100831.66;;;9.13;100.00
59608;BME280;45426;44.726;10.390;2022-12-05T08:49:11;100834.38;;;8.82;100.00
59608;BME280;45426;44.726;10.390;2022-12-05T08:51:37;100822.28;;;9.60;100.00
59608;BME280;45426;44.726;10.390;2022-12-05T08:54:03;100822.47;;;9.81;100.00
59608;BME280;45426;44.726;10.390;2022-12-05T08:56:30;100817.50;;;9.74;100.00
59608;BME280;45426;44.726;10.390;2022-12-05T08:58:57;100821.34;;;10.08;100.00
59608;BME280;45426;44.726;10.390;2022-12-05T09:01:22;100828.69;;;9.81;100.00
59608;BME280;45426;44.726;10.390;2022-12-05T09:03:50;100815.47;;;10.15;100.00
59608;BME280;45426;44.726;10.390;2022-12-05T09:06:18;100831.09;;;9.83;100.00
59608;BME280;45426;44.726;10.390;2022-12-05T09:08:44;100845.16;;;9.36;100.00
59608;BME280;45426;44.726;10.390;2022-12-05T09:11:16;100843.63;;;9.52;100.00
59608;BME280;45426;44.726;10.390;2022-12-05T09:13:42;100853.25;;;9.27;100.00
59608;BME280;45426;44.726;10.390;2022-12-05T09:16:10;100852.38;;;9.49;100.00
59608;BME280;45426;44.726;10.390;2022-12-05T09:18:37;100835.84;;;9.60;100.00
59608;BME280;45426;44.726;10.390;2022-12-05T09:21:11;100829.09;;;9.48;100.00
59608;BME280;45426;44.726;10.390;2022-12-05T09:23:37;100858.50;;;9.24;100.00
59608;BME280;45426;44.726;10.390;2022-12-05T09:26:04;100839.03;;;9.62;100.00
59608;BME280;45426;44.726;10.390;2022-12-05T09:28:31;100841.34;;;9.37;100.00
59608;BME280;45426;44.726;10.390;2022-12-05T09:31:02;100828.00;;;9.67;100.00
59608;BME280;45426;44.726;10.390;2022-12-05T09:33:29;100823.28;;;9.90;100.00
59608;BME280;45426;44.726;10.390;2022-12-05T09:35:54;100833.66;;;9.88;100.00
59608;BME280;45426;44.726;10.390;2022-12-05T09:38:22;100840.34;;;9.33;100.00
59608;BME280;45426;44.726;10.390;2022-12-05T09:40:53;100834.38;;;9.13;100.00
59608;BME280;45426;44.726;10.390;2022-12-05T09:43:28;100835.28;;;9.00;100.00
59608;BME280;45426;44.726;10.390;2022-12-05T09:46:14;100831.53;;;9.76;100.00
59608;BME280;45426;44.726;10.390;2022-12-05T09:48:43;100820.03;;;9.62;100.00
59608;BME280;45426;44.726;10.390;2022-12-05T09:51:10;100821.38;;;9.33;100.00
59608;BME280;45426;44.726;10.390;2022-12-05T09:53:41;100806.94;;;9.64;100.00
59608;BME280;45426;44.726;10.390;2022-12-05T09:56:26;100810.69;;;9.28;100.00
59608;BME280;45426;44.726;10.390;2022-12-05T09:58:56;100798.31;;;9.70;100.00
59608;BME280;45426;44.726;10.390;2022-12-05T10:15:22;100797.38;;;9.58;100.00
59608;BME280;45426;44.726;10.390;2022-12-05T10:21:03;100782.72;;;10.11;100.00
59608;BME280;45426;44.726;10.390;2022-12-05T10:26:15;100774.25;;;9.86;100.00
59608;BME280;45426;44.726;10.390;2022-12-05T10:28:49;100771.53;;;10.30;100.00
59608;BME280;45426;44.726;10.390;2022-12-05T10:31:20;100766.28;;;10.07;100.00
59608;BME280;45426;44.726;10.390;2022-12-05T10:33:52;100767.38;;;10.15;100.00
59608;BME280;45426;44.726;10.390;2022-12-05T10:36:23;100746.63;;;10.37;100.00
59608;BME280;45426;44.726;10.390;2022-12-05T10:38:48;100743.09;;;10.45;100.00
59608;BME280;45426;44.726;10.390;2022-12-05T10:41:15;100738.19;;;11.15;100.00
59608;BME280;45426;44.726;10.390;2022-12-05T10:43:43;100737.06;;;11.16;100.00
59608;BME280;45426;44.726;10.390;2022-12-05T10:46:10;100729.41;;;10.80;100.00
59608;BME280;45426;44.726;10.390;2022-12-05T10:48:39;100738.66;;;9.79;100.00
59608;BME280;45426;44.726;10.390;2022-12-05T10:51:05;100753.19;;;9.66;100.00
59608;BME280;45426;44.726;10.390;2022-12-05T10:53:47;100755.44;;;9.99;100.00
59608;BME280;45426;44.726;10.390;2022-12-05T10:59:00;100738.00;;;9.74;100.00
59608;BME280;45426;44.726;10.390;2022-12-05T11:01:26;100745.03;;;10.18;100.00
59608;BME280;45426;44.726;10.390;2022-12-05T11:03:59;100730.81;;;10.13;100.00
59608;BME280;45426;44.726;10.390;2022-12-05T11:06:30;100717.63;;;10.58;100.00
59608;BME280;45426;44.726;10.390;2022-12-05T11:09:04;100715.34;;;9.87;100.00
59608;BME280;45426;44.726;10.390;2022-12-05T11:11:37;100718.69;;;10.36;100.00
59608;BME280;45426;44.726;10.390;2022-12-05T11:14:25;100701.06;;;11.40;100.00
59608;BME280;45426;44.726;10.390;2022-12-05T11:16:55;100713.25;;;11.13;100.00
59608;BME280;45426;44.726;10.390;2022-12-05T11:21:47;100702.56;;;9.96;100.00
59608;BME280;45426;44.726;10.390;2022-12-05T11:24:29;100709.94;;;10.69;100.00
59608;BME280;45426;44.726;10.390;2022-12-05T11:29:42;100686.25;;;11.08;100.00
59608;BME280;45426;44.726;10.390;2022-12-05T11:32:25;100678.50;;;11.19;100.00
59608;BME280;45426;44.726;10.390;2022-12-05T11:46:22;100697.41;;;10.29;100.00
59608;BME280;45426;44.726;10.390;2022-12-05T11:51:50;100693.16;;;11.05;100.00
59608;BME280;45426;44.726;10.390;2022-12-05T11:57:22;100673.81;;;10.21;100.00
59608;BME280;45426;44.726;10.390;2022-12-05T12:00:04;100680.56;;;10.62;100.00
59608;BME280;45426;44.726;10.390;2022-12-05T12:08:04;100703.22;;;11.05;100.00
59608;BME280;45426;44.726;10.390;2022-12-05T12:19:01;100690.03;;;10.86;100.00
59608;BME280;45426;44.726;10.390;2022-12-05T12:21:46;100685.06;;;11.18;100.00
59608;BME280;45426;44.726;10.390;2022-12-05T12:32:36;100659.31;;;10.64;100.00
59608;BME280;45426;44.726;10.390;2022-12-05T12:35:19;100660.59;;;11.60;100.00
59608;BME280;45426;44.726;10.390;2022-12-05T12:40:47;100636.91;;;11.60;100.00
59608;BME280;45426;44.726;10.390;2022-12-05T12:43:35;100644.09;;;11.23;100.00
59608;BME280;45426;44.726;10.390;2022-12-05T12:46:15;100650.56;;;11.73;100.00
59608;BME280;45426;44.726;10.390;2022-12-05T12:49:07;100643.53;;;11.30;100.00
59608;BME280;45426;44.726;10.390;2022-12-05T12:51:43;100657.75;;;11.35;100.00
59608;BME280;45426;44.726;10.390;2022-12-05T13:02:25;100647.06;;;11.09;100.00
59608;BME280;45426;44.726;10.390;2022-12-05T13:05:31;100641.56;;;11.39;100.00
59608;BME280;45426;44.726;10.390;2022-12-05T13:08:02;100647.06;;;11.30;100.00
59608;BME280;45426;44.726;10.390;2022-12-05T13:10:47;100643.06;;;11.06;100.00
59608;BME280;45426;44.726;10.390;2022-12-05T13:13:30;100652.56;;;10.71;100.00
59608;BME280;45426;44.726;10.390;2022-12-05T13:16:00;100659.56;;;11.01;100.00
59608;BME280;45426;44.726;10.390;2022-12-05T13:18:26;100663.31;;;10.88;100.00
59608;BME280;45426;44.726;10.390;2022-12-05T13:21:00;100671.94;;;10.90;100.00
59608;BME280;45426;44.726;10.390;2022-12-05T13:23:29;100674.75;;;11.02;100.00
59608;BME280;45426;44.726;10.390;2022-12-05T13:25:58;100674.13;;;11.05;100.00
59608;BME280;45426;44.726;10.390;2022-12-05T13:28:32;100667.56;;;10.98;100.00
59608;BME280;45426;44.726;10.390;2022-12-05T13:30:59;100667.50;;;11.15;100.00
59608;BME280;45426;44.726;10.390;2022-12-05T13:33:33;100663.03;;;11.11;100.00
59608;BME280;45426;44.726;10.390;2022-12-05T13:36:11;100670.78;;;11.00;100.00
59608;BME280;45426;44.726;10.390;2022-12-05T13:39:01;100666.03;;;11.18;100.00
59608;BME280;45426;44.726;10.390;2022-12-05T13:41:49;100665.22;;;10.96;100.00
59608;BME280;45426;44.726;10.390;2022-12-05T13:44:39;100650.84;;;11.17;100.00
59608;BME280;45426;44.726;10.390;2022-12-05T13:47:07;100657.88;;;10.88;100.00
59608;BME280;45426;44.726;10.390;2022-12-05T13:49:48;100657.41;;;11.16;100.00
59608;BME280;45426;44.726;10.390;2022-12-05T13:52:22;100658.91;;;11.04;100.00
59608;BME280;45426;44.726;10.390;2022-12-05T13:55:20;100659.78;;;10.96;100.00
59608;BME280;45426;44.726;10.390;2022-12-05T13:57:49;100662.44;;;10.75;100.00
59608;BME280;45426;44.726;10.390;2022-12-05T14:15:38;100665.28;;;10.79;100.00
59608;BME280;45426;44.726;10.390;2022-12-05T14:18:23;100655.31;;;10.92;100.00
59608;BME280;45426;44.726;10.390;2022-12-05T14:26:36;100651.69;;;10.79;100.00
59608;BME280;45426;44.726;10.390;2022-12-05T14:34:27;100660.66;;;11.09;100.00
59608;BME280;45426;44.726;10.390;2022-12-05T14:37:05;100644.56;;;10.95;100.00
59608;BME280;45426;44.726;10.390;2022-12-05T14:39:32;100641.53;;;10.67;100.00
59608;BME280;45426;44.726;10.390;2022-12-05T14:42:00;100662.25;;;10.80;100.00
59608;BME280;45426;44.726;10.390;2022-12-05T14:44:27;100666.50;;;10.90;100.00
59608;BME280;45426;44.726;10.390;2022-12-05T14:46:58;100654.34;;;10.96;100.00
59608;BME280;45426;44.726;10.390;2022-12-05T14:52:30;100665.09;;;11.14;100.00
59608;BME280;45426;44.726;10.390;2022-12-05T14:55:00;100663.66;;;10.86;100.00
59608;BME280;45426;44.726;10.390;2022-12-05T14:57:27;100651.41;;;11.01;100.00
59608;BME280;45426;44.726;10.390;2022-12-05T15:00:04;100651.00;;;10.91;100.00
59608;BME280;45426;44.726;10.390;2022-12-05T15:02:37;100658.00;;;11.00;100.00
59608;BME280;45426;44.726;10.390;2022-12-05T15:07:39;100648.22;;;10.99;100.00
59608;BME280;45426;44.726;10.390;2022-12-05T15:12:47;100641.41;;;10.93;100.00
59608;BME280;45426;44.726;10.390;2022-12-05T15:18:25;100648.94;;;10.58;100.00
59608;BME280;45426;44.726;10.390;2022-12-05T15:23:46;100631.75;;;10.75;100.00
59608;BME280;45426;44.726;10.390;2022-12-05T15:26:25;100633.00;;;10.47;100.00
59608;BME280;45426;44.726;10.390;2022-12-05T15:28:58;100649.72;;;10.58;100.00
59608;BME280;45426;44.726;10.390;2022-12-05T15:31:27;100650.13;;;10.78;100.00
59608;BME280;45426;44.726;10.390;2022-12-05T15:33:56;100641.28;;;10.81;100.00
59608;BME280;45426;44.726;10.390;2022-12-05T15:36:28;100654.84;;;10.90;100.00
59608;BME280;45426;44.726;10.390;2022-12-05T15:38:56;100654.13;;;10.72;100.00
59608;BME280;45426;44.726;10.390;2022-12-05T15:41:21;100648.91;;;10.66;100.00
59608;BME280;45426;44.726;10.390;2022-12-05T15:43:55;100656.34;;;10.78;100.00
59608;BME280;45426;44.726;10.390;2022-12-05T15:46:23;100663.53;;;10.36;100.00